createdAt,value
2018-03-24T00:01:52.584Z,29.40
2018-03-24T00:04:18.757Z,25.80
2018-03-24T00:06:45.572Z,29.77
2018-03-24T00:09:12.469Z,26.83
2018-03-24T00:11:38.674Z,26.33
2018-03-24T00:14:05.559Z,28.60
2018-03-24T00:16:31.709Z,26.37
2018-03-24T00:18:57.788Z,27.37
2018-03-24T00:21:23.964Z,28.13
2018-03-24T00:23:50.048Z,28.53
2018-03-24T00:26:16.221Z,26.20
2018-03-24T00:28:42.404Z,27.33
2018-03-24T00:31:09.270Z,25.67
2018-03-24T00:33:36.502Z,27.00
2018-03-24T00:36:03.363Z,28.97
2018-03-24T00:38:30.332Z,27.63
2018-03-24T00:40:57.559Z,27.10
2018-03-24T00:43:23.583Z,27.30
2018-03-24T00:45:50.281Z,29.90
2018-03-24T00:48:17.501Z,29.83
2018-03-24T00:50:44.397Z,27.30
2018-03-24T00:53:10.575Z,27.57
2018-03-24T00:55:36.680Z,26.60
2018-03-24T00:58:02.824Z,27.17
2018-03-24T01:00:29.960Z,27.80
2018-03-24T01:02:56.334Z,25.90
2018-03-24T01:05:23.197Z,27.83
2018-03-24T01:07:49.756Z,26.40
2018-03-24T01:10:16.062Z,26.13
2018-03-24T01:12:43.042Z,27.30
2018-03-24T01:15:09.190Z,29.33
2018-03-24T01:17:35.266Z,26.70
2018-03-24T01:20:01.413Z,26.47
2018-03-24T01:22:28.269Z,26.10
2018-03-24T01:24:55.362Z,26.30
2018-03-24T01:27:21.504Z,26.40
2018-03-24T01:29:47.765Z,26.73
2018-03-24T01:32:13.889Z,26.23
2018-03-24T01:34:40.035Z,25.80
2018-03-24T01:37:06.968Z,25.00
2018-03-24T01:39:33.110Z,26.80
2018-03-24T01:42:00.047Z,26.77
2018-03-24T01:44:26.190Z,25.37
2018-03-24T01:46:53.067Z,25.20
2018-03-24T01:49:19.859Z,26.23
2018-03-24T01:51:45.950Z,26.57
2018-03-24T01:54:12.132Z,24.93
2018-03-24T01:56:38.330Z,23.93
2018-03-24T01:59:04.558Z,25.67
2018-03-24T02:01:30.804Z,25.30
2018-03-24T02:03:57.126Z,25.63
2018-03-24T02:06:23.260Z,24.47
2018-03-24T02:08:49.359Z,26.50
2018-03-24T02:11:16.293Z,23.90
2018-03-24T02:13:43.482Z,25.37
2018-03-24T02:16:09.729Z,25.13
2018-03-24T02:18:35.771Z,25.97
2018-03-24T02:21:05.826Z,25.77
2018-03-24T02:23:32.029Z,25.00
2018-03-24T02:26:05.316Z,24.90
2018-03-24T02:28:31.473Z,25.50
2018-03-24T02:30:57.675Z,23.20
2018-03-24T02:33:23.759Z,26.07
2018-03-24T02:35:49.969Z,24.70
2018-03-24T02:38:16.099Z,25.17
2018-03-24T02:40:42.429Z,25.33
2018-03-24T02:43:08.538Z,24.37
2018-03-24T02:45:34.970Z,25.13
2018-03-24T02:48:01.107Z,25.60
2018-03-24T02:50:27.209Z,26.00
2018-03-24T02:52:53.379Z,26.60
2018-03-24T02:55:20.436Z,26.23
2018-03-24T02:57:46.553Z,25.50
2018-03-24T03:00:13.286Z,27.63
2018-03-24T03:02:40.221Z,26.67
2018-03-24T03:05:07.056Z,26.73
2018-03-24T03:07:33.154Z,28.40
2018-03-24T03:09:59.410Z,28.50
2018-03-24T03:12:25.930Z,27.90
2018-03-24T03:14:52.092Z,28.47
2018-03-24T03:17:19.611Z,28.87
2018-03-24T03:19:45.669Z,26.60
2018-03-24T03:22:12.425Z,28.67
2018-03-24T03:24:38.523Z,28.27
2018-03-24T03:27:04.649Z,26.83
2018-03-24T03:29:30.773Z,28.03
2018-03-24T03:32:10.802Z,27.37
2018-03-24T03:34:37.134Z,27.80
2018-03-24T03:37:03.405Z,27.53
2018-03-24T03:39:29.514Z,27.60
2018-03-24T03:41:56.392Z,27.10
2018-03-24T03:44:22.426Z,28.90
2018-03-24T03:46:48.530Z,27.27
2018-03-24T03:49:14.619Z,29.00
2018-03-24T03:51:42.432Z,27.40
2018-03-24T03:54:08.572Z,27.10
2018-03-24T03:56:34.651Z,28.30
2018-03-24T03:59:00.846Z,27.30
2018-03-24T04:01:26.898Z,27.17
2018-03-24T04:03:53.763Z,28.47
2018-03-24T04:06:19.827Z,27.27
2018-03-24T04:08:45.872Z,27.62
2018-03-24T04:11:12.041Z,28.97
2018-03-24T04:13:38.168Z,28.77
2018-03-24T04:16:04.242Z,26.63
2018-03-24T04:18:30.546Z,26.77
2018-03-24T04:20:57.162Z,28.60
2018-03-24T04:23:24.094Z,31.57
2018-03-24T04:25:50.247Z,29.57
2018-03-24T04:28:17.287Z,28.43
2018-03-24T04:30:43.482Z,28.00
2018-03-24T04:33:10.146Z,27.50
2018-03-24T04:35:36.243Z,26.33
2018-03-24T04:38:03.182Z,28.40
2018-03-24T04:40:29.284Z,27.40
2018-03-24T04:42:55.365Z,27.37
2018-03-24T04:45:22.244Z,27.47
2018-03-24T04:47:48.390Z,28.60
2018-03-24T04:50:14.540Z,27.80
2018-03-24T04:52:40.554Z,26.60
2018-03-24T04:55:06.730Z,25.80
2018-03-24T04:57:33.777Z,27.43
2018-03-24T05:00:00.106Z,25.83
2018-03-24T05:02:26.394Z,26.87
2018-03-24T05:04:53.269Z,26.90
2018-03-24T05:07:19.407Z,28.87
2018-03-24T05:09:45.520Z,25.30
2018-03-24T05:12:11.699Z,31.30
2018-03-24T05:14:38.533Z,26.02
2018-03-24T05:17:05.002Z,25.60
2018-03-24T05:19:31.150Z,26.87
2018-03-24T05:21:57.282Z,26.27
2018-03-24T05:24:23.379Z,24.30
2018-03-24T05:26:49.438Z,26.95
2018-03-24T05:29:16.375Z,27.48
2018-03-24T05:31:42.762Z,27.10
2018-03-24T05:34:08.887Z,27.93
2018-03-24T05:36:35.174Z,28.63
2018-03-24T05:39:02.527Z,23.73
2018-03-24T05:41:28.644Z,24.73
2018-03-24T05:43:55.207Z,26.50
2018-03-24T05:46:22.204Z,25.23
2018-03-24T05:48:48.233Z,25.80
2018-03-24T05:51:14.347Z,26.17
2018-03-24T05:53:41.452Z,25.30
2018-03-24T05:56:07.771Z,23.02
2018-03-24T05:58:33.907Z,25.65
2018-03-24T06:01:00.087Z,33.43
2018-03-24T06:03:26.230Z,25.70
2018-03-24T06:05:53.205Z,25.95
2018-03-24T06:08:20.037Z,28.27
2018-03-24T06:10:46.140Z,24.17
2018-03-24T06:13:12.155Z,27.70
2018-03-24T06:15:38.948Z,26.10
2018-03-24T06:18:05.321Z,25.97
2018-03-24T06:20:32.440Z,23.90
2018-03-24T06:22:58.526Z,24.35
2018-03-24T06:25:24.656Z,26.97
2018-03-24T06:27:51.486Z,24.80
2018-03-24T06:30:17.648Z,27.08
2018-03-24T06:32:44.486Z,27.35
2018-03-24T06:35:11.717Z,25.40
2018-03-24T06:37:37.799Z,24.10
2018-03-24T06:40:03.939Z,25.33
2018-03-24T06:42:30.055Z,26.80
2018-03-24T06:44:56.260Z,28.40
2018-03-24T06:47:22.593Z,25.43
2018-03-24T06:49:48.702Z,25.25
2018-03-24T06:52:15.452Z,26.73
2018-03-24T06:54:41.626Z,25.20
2018-03-24T06:57:08.954Z,23.03
2018-03-24T06:59:35.044Z,26.05
2018-03-24T07:02:01.206Z,27.40
2018-03-24T07:04:27.469Z,23.70
2018-03-24T07:06:56.477Z,22.37
2018-03-24T07:09:23.352Z,25.30
2018-03-24T07:11:49.509Z,25.90
2018-03-24T07:14:15.633Z,24.37
2018-03-24T07:16:41.723Z,23.33
2018-03-24T07:19:08.626Z,25.83
2018-03-24T07:21:34.762Z,26.50
2018-03-24T07:24:00.946Z,29.00
2018-03-24T07:26:27.837Z,26.93
2018-03-24T07:28:54.046Z,27.43
2018-03-24T07:31:21.201Z,26.60
2018-03-24T07:33:48.260Z,26.67
2018-03-24T07:36:14.431Z,25.07
2018-03-24T07:38:41.041Z,26.73
2018-03-24T07:41:07.381Z,26.90
2018-03-24T07:43:33.485Z,25.50
2018-03-24T07:45:59.571Z,25.87
2018-03-24T07:48:26.552Z,27.30
2018-03-24T07:50:53.510Z,25.23
2018-03-24T07:53:21.387Z,25.60
2018-03-24T07:55:48.208Z,27.00
2018-03-24T07:58:14.385Z,23.00
2018-03-24T08:00:40.575Z,24.03
2018-03-24T08:03:06.783Z,26.33
2018-03-24T08:05:33.406Z,25.50
2018-03-24T08:07:59.663Z,24.10
2018-03-24T08:10:27.067Z,26.90
2018-03-24T08:12:53.199Z,27.63
2018-03-24T08:15:19.633Z,31.17
2018-03-24T08:17:45.862Z,28.47
2018-03-24T08:20:12.796Z,28.13
2018-03-24T08:22:39.688Z,24.77
2018-03-24T08:25:05.837Z,26.63
2018-03-24T08:27:32.065Z,26.13
2018-03-24T08:29:58.210Z,25.20
2018-03-24T08:32:24.819Z,27.73
2018-03-24T08:34:50.936Z,26.13
2018-03-24T08:37:17.812Z,27.47
2018-03-24T08:39:44.339Z,27.33
2018-03-24T08:42:10.924Z,30.17
2018-03-24T08:44:37.907Z,27.37
2018-03-24T08:47:05.432Z,25.40
2018-03-24T08:49:31.953Z,27.10
2018-03-24T08:51:58.906Z,28.07
2018-03-24T08:54:25.035Z,26.17
2018-03-24T08:56:51.137Z,24.80
2018-03-24T08:59:17.971Z,25.00
2018-03-24T09:01:45.330Z,27.07
2018-03-24T09:04:11.700Z,25.37
2018-03-24T09:06:37.862Z,25.77
2018-03-24T09:09:04.317Z,25.63
2018-03-24T09:11:30.592Z,26.10
2018-03-24T09:13:56.741Z,24.57
2018-03-24T09:16:24.733Z,25.90
2018-03-24T09:18:51.720Z,23.90
2018-03-24T09:21:17.875Z,25.10
2018-03-24T09:23:44.751Z,29.70
2018-03-24T09:26:10.872Z,24.20
2018-03-24T09:28:37.007Z,24.13
2018-03-24T09:31:03.145Z,22.53
2018-03-24T09:33:29.308Z,21.87
2018-03-24T09:35:57.006Z,23.07
2018-03-24T09:38:23.301Z,21.60
2018-03-24T09:40:49.732Z,21.40
2018-03-24T09:43:16.777Z,20.33
2018-03-24T09:45:43.972Z,22.87
2018-03-24T09:48:10.106Z,22.63
2018-03-24T09:50:36.334Z,20.73
2018-03-24T09:53:02.539Z,20.93
2018-03-24T09:55:28.688Z,18.30
2018-03-24T09:57:54.710Z,17.40
2018-03-24T10:00:20.743Z,18.67
2018-03-24T10:02:46.856Z,17.17
2018-03-24T10:05:13.156Z,16.67
2018-03-24T10:07:39.171Z,14.30
2018-03-24T10:10:06.094Z,11.67
2018-03-24T10:12:32.532Z,13.03
2018-03-24T10:14:58.731Z,13.93
2018-03-24T10:17:25.248Z,11.57
2018-03-24T10:19:51.383Z,10.73
2018-03-24T10:25:26.666Z,11.30
2018-03-24T10:27:53.322Z,11.23
2018-03-24T10:30:19.414Z,11.40
2018-03-24T10:32:45.548Z,11.23
2018-03-24T10:35:11.721Z,12.40
2018-03-24T10:37:44.500Z,10.77
2018-03-24T10:40:11.496Z,11.70
2018-03-24T10:42:38.462Z,11.20
2018-03-24T10:45:04.626Z,11.90
2018-03-24T10:47:30.797Z,12.73
2018-03-24T10:49:57.747Z,11.57
2018-03-24T10:52:24.267Z,11.87
2018-03-24T10:54:50.862Z,13.00
2018-03-24T10:57:17.112Z,12.67
2018-03-24T10:59:44.107Z,12.67
2018-03-24T11:02:10.212Z,13.33
2018-03-24T11:04:36.303Z,12.37
2018-03-24T11:07:02.604Z,12.43
2018-03-24T11:09:28.811Z,10.70
2018-03-24T11:11:55.150Z,12.33
2018-03-24T11:14:21.558Z,12.47
2018-03-24T11:16:48.830Z,13.40
2018-03-24T11:19:15.046Z,13.97
2018-03-24T11:21:42.508Z,13.90
2018-03-24T11:24:08.593Z,12.47
2018-03-24T11:26:34.780Z,14.77
2018-03-24T11:29:00.879Z,11.93
2018-03-24T11:31:27.757Z,14.27
2018-03-24T11:33:54.994Z,13.10
2018-03-24T11:36:21.156Z,12.77
2018-03-24T11:38:47.227Z,13.17
2018-03-24T11:41:13.432Z,13.20
2018-03-24T11:43:39.547Z,11.97
2018-03-24T11:46:06.637Z,13.13
2018-03-24T11:48:33.684Z,11.33
2018-03-24T11:51:00.454Z,12.80
2018-03-24T11:53:39.675Z,14.73
2018-03-24T11:56:05.867Z,12.87
2018-03-24T11:58:32.166Z,12.63
2018-03-24T12:00:58.345Z,11.70
2018-03-24T12:03:24.577Z,13.00
2018-03-24T12:05:51.773Z,11.90
2018-03-24T12:08:18.079Z,11.50
2018-03-24T12:10:44.243Z,11.53
2018-03-24T12:13:10.343Z,12.53
2018-03-24T12:15:37.315Z,12.03
2018-03-24T12:18:05.736Z,12.20
2018-03-24T12:20:33.547Z,13.00
2018-03-24T12:22:59.927Z,13.30
2018-03-24T12:25:26.006Z,11.63
2018-03-24T12:27:52.541Z,13.23
2018-03-24T12:30:20.634Z,12.40
2018-03-24T12:32:46.896Z,12.60
2018-03-24T12:35:13.120Z,13.10
2018-03-24T12:37:39.649Z,12.90
2018-03-24T12:40:05.892Z,12.20
2018-03-24T12:42:31.999Z,11.80
2018-03-24T12:44:58.249Z,11.33
2018-03-24T12:47:24.773Z,12.40
2018-03-24T12:49:51.078Z,10.00
2018-03-24T12:52:17.319Z,10.93
2018-03-24T12:54:44.188Z,10.30
2018-03-24T12:57:10.289Z,10.23
2018-03-24T12:59:38.097Z,11.10
2018-03-24T13:02:04.740Z,9.90
2018-03-24T13:04:30.848Z,9.70
2018-03-24T13:06:57.384Z,9.67
2018-03-24T13:09:24.425Z,10.73
2018-03-24T13:11:50.751Z,11.60
2018-03-24T13:14:17.602Z,11.63
2018-03-24T13:16:44.450Z,10.40
2018-03-24T13:19:11.346Z,10.30
2018-03-24T13:21:37.515Z,10.10
2018-03-24T13:24:03.871Z,10.50
2018-03-24T13:26:30.694Z,11.83
2018-03-24T13:28:56.907Z,11.57
2018-03-24T13:31:23.782Z,10.20
2018-03-24T13:33:50.423Z,11.10
2018-03-24T13:36:16.709Z,11.53
2018-03-24T13:38:42.997Z,12.60
2018-03-24T13:41:10.319Z,11.17
2018-03-24T13:43:36.679Z,11.30
2018-03-24T13:46:02.852Z,11.07
2018-03-24T13:48:29.777Z,11.27
2018-03-24T13:50:57.605Z,12.60
2018-03-24T13:53:24.755Z,11.20
2018-03-24T13:55:50.915Z,11.23
2018-03-24T13:58:17.047Z,11.10
2018-03-24T14:00:43.993Z,11.03
2018-03-24T14:03:10.157Z,10.27
2018-03-24T14:05:36.438Z,10.50
2018-03-24T14:08:03.544Z,10.90
2018-03-24T14:10:30.863Z,11.03
2018-03-24T14:12:57.416Z,10.90
2018-03-24T14:15:25.006Z,10.30
2018-03-24T14:17:52.124Z,10.20
2018-03-24T14:20:21.469Z,11.00
2018-03-24T14:22:50.306Z,10.23
2018-03-24T14:25:17.171Z,11.67
2018-03-24T14:27:43.322Z,11.20
2018-03-24T14:30:10.571Z,10.73
2018-03-24T14:32:37.305Z,11.00
2018-03-24T14:35:05.299Z,11.40
2018-03-24T14:37:32.478Z,10.70
2018-03-24T14:39:59.603Z,10.80
2018-03-24T14:42:27.707Z,10.80
2018-03-24T14:44:53.930Z,10.20
2018-03-24T14:47:21.450Z,12.23
2018-03-24T14:49:47.615Z,10.83
2018-03-24T14:52:14.095Z,10.10
2018-03-24T14:54:40.414Z,10.70
2018-03-24T14:57:08.189Z,10.13
2018-03-24T14:59:35.328Z,11.50
2018-03-24T15:02:02.345Z,11.87
2018-03-24T15:04:28.874Z,10.47
2018-03-24T15:06:55.109Z,10.20
2018-03-24T15:09:21.242Z,10.23
2018-03-24T15:11:47.904Z,12.17
2018-03-24T15:14:14.126Z,10.17
2018-03-24T15:16:40.356Z,11.37
2018-03-24T15:19:06.511Z,10.60
2018-03-24T15:21:32.698Z,10.67
2018-03-24T15:23:59.746Z,11.10
2018-03-24T15:26:25.988Z,9.80
2018-03-24T15:29:05.369Z,8.60
2018-03-24T15:31:46.058Z,10.47
2018-03-24T15:34:26.056Z,10.03
2018-03-24T15:36:52.294Z,9.57
2018-03-24T15:39:18.493Z,10.90
2018-03-24T15:41:45.136Z,10.40
2018-03-24T15:44:11.355Z,12.30
2018-03-24T15:46:37.612Z,10.07
2018-03-24T15:49:03.855Z,15.30
2018-03-24T15:51:30.051Z,11.27
2018-03-24T15:53:56.989Z,10.67
2018-03-24T15:56:24.007Z,11.50
2018-03-24T15:58:50.274Z,10.40
2018-03-24T16:01:16.503Z,11.50
2018-03-24T16:03:42.855Z,10.50
2018-03-24T16:06:09.084Z,9.77
2018-03-24T16:08:35.284Z,10.20
2018-03-24T16:11:01.545Z,66.70
2018-03-24T16:13:28.770Z,13.70
2018-03-24T16:15:54.891Z,13.03
2018-03-24T16:18:22.072Z,12.20
2018-03-24T16:20:48.711Z,11.47
2018-03-24T16:23:14.941Z,15.23
2018-03-24T16:25:41.057Z,11.20
2018-03-24T16:28:07.510Z,11.90
2018-03-24T16:30:34.509Z,12.87
2018-03-24T16:33:01.874Z,11.17
2018-03-24T16:35:28.751Z,10.00
2018-03-24T16:37:56.220Z,12.10
2018-03-24T16:40:24.657Z,12.53
2018-03-24T16:42:51.613Z,11.03
2018-03-24T16:45:18.961Z,18.07
2018-03-24T16:47:45.935Z,14.03
2018-03-24T16:50:13.036Z,16.93
2018-03-24T16:52:39.824Z,15.77
2018-03-24T16:55:07.132Z,11.03
2018-03-24T16:57:36.078Z,11.23
2018-03-24T17:00:03.850Z,16.63
2018-03-24T17:02:29.907Z,18.27
2018-03-24T17:04:56.498Z,21.60
2018-03-24T17:07:22.815Z,13.70
2018-03-24T17:09:49.008Z,11.10
2018-03-24T17:12:15.892Z,11.73
2018-03-24T17:14:42.444Z,11.93
2018-03-24T17:17:08.658Z,12.07
2018-03-24T17:19:34.902Z,12.10
2018-03-24T17:22:01.111Z,10.90
2018-03-24T17:24:27.417Z,11.57
2018-03-24T17:26:54.001Z,11.77
2018-03-24T17:29:20.371Z,12.20
2018-03-24T17:31:47.762Z,12.43
2018-03-24T17:34:15.141Z,11.87
2018-03-24T17:36:42.087Z,13.93
2018-03-24T17:39:08.390Z,11.83
2018-03-24T17:41:36.238Z,13.13
2018-03-24T17:44:02.833Z,11.27
2018-03-24T17:46:29.737Z,11.60
2018-03-24T17:48:56.658Z,13.43
2018-03-24T17:51:23.023Z,15.80
2018-03-24T17:53:51.068Z,13.10
2018-03-24T17:56:18.162Z,12.90
2018-03-24T17:58:44.554Z,13.40
2018-03-24T18:01:10.676Z,12.47
2018-03-24T18:03:37.823Z,12.07
2018-03-24T18:06:04.979Z,12.50
2018-03-24T18:08:31.131Z,11.43
2018-03-24T18:10:57.584Z,12.40
2018-03-24T18:13:24.004Z,14.90
2018-03-24T18:15:50.330Z,12.70
2018-03-24T18:18:16.522Z,13.03
2018-03-24T18:20:44.221Z,12.70
2018-03-24T18:23:10.346Z,11.77
2018-03-24T18:25:37.292Z,14.10
2018-03-24T18:28:04.776Z,12.43
2018-03-24T18:30:31.108Z,12.23
2018-03-24T18:32:57.374Z,12.90
2018-03-24T18:35:23.496Z,12.07
2018-03-24T18:37:49.623Z,13.00
2018-03-24T18:40:15.785Z,13.03
2018-03-24T18:42:42.442Z,12.70
2018-03-24T18:45:09.458Z,14.53
2018-03-24T18:47:36.176Z,14.90
2018-03-24T18:50:02.453Z,13.27
2018-03-24T18:52:28.594Z,12.60
2018-03-24T18:54:54.794Z,13.57
2018-03-24T18:57:20.963Z,14.57
2018-03-24T18:59:47.157Z,15.53
2018-03-24T19:02:13.709Z,16.27
2018-03-24T19:04:40.639Z,14.73
2018-03-24T19:07:06.845Z,16.63
2018-03-24T19:09:33.639Z,17.33
2018-03-24T19:11:59.809Z,17.33
2018-03-24T19:14:27.577Z,16.10
2018-03-24T19:16:55.021Z,17.27
2018-03-24T19:19:21.380Z,16.20
2018-03-24T19:21:48.324Z,15.97
2018-03-24T19:24:14.464Z,16.87
2018-03-24T19:26:41.286Z,16.83
2018-03-24T19:29:07.613Z,16.50
2018-03-24T19:31:35.210Z,15.23
2018-03-24T19:34:02.964Z,16.70
2018-03-24T19:36:29.431Z,15.20
2018-03-24T19:38:56.214Z,16.67
2018-03-24T19:41:22.302Z,15.60
2018-03-24T19:43:49.475Z,18.47
2018-03-24T19:46:16.493Z,19.50
2018-03-24T19:48:42.593Z,20.63
2018-03-24T19:51:09.785Z,18.10
2018-03-24T19:53:35.943Z,18.40
2018-03-24T19:56:02.063Z,17.03
2018-03-24T19:58:28.773Z,17.60
2018-03-24T20:00:54.913Z,16.33
2018-03-24T20:03:21.017Z,16.77
2018-03-24T20:05:47.830Z,17.27
2018-03-24T20:08:14.032Z,17.03
2018-03-24T20:10:40.154Z,16.03
2018-03-24T20:13:06.675Z,16.60
2018-03-24T20:15:33.503Z,18.40
2018-03-24T20:17:59.574Z,17.30
2018-03-24T20:20:26.051Z,18.30
2018-03-24T20:22:52.968Z,21.43
2018-03-24T20:25:19.062Z,18.00
2018-03-24T20:27:45.239Z,46.47
2018-03-24T20:30:11.417Z,20.20
2018-03-24T20:32:37.629Z,16.47
2018-03-24T20:35:04.597Z,17.43
2018-03-24T20:37:31.656Z,20.10
2018-03-24T20:39:57.760Z,19.03
2018-03-24T20:42:24.196Z,19.10
2018-03-24T20:44:50.223Z,19.30
2018-03-24T20:47:17.293Z,19.53
2018-03-24T20:49:43.407Z,19.70
2018-03-24T20:52:09.639Z,22.83
2018-03-24T20:54:36.281Z,23.07
2018-03-24T20:57:02.596Z,22.80
2018-03-24T20:59:28.747Z,20.97
2018-03-24T21:01:56.478Z,21.17
2018-03-24T21:04:22.600Z,22.47
2018-03-24T21:06:48.746Z,21.50
2018-03-24T21:09:14.898Z,20.50
2018-03-24T21:11:40.939Z,22.53
2018-03-24T21:14:08.173Z,19.93
2018-03-24T21:16:34.305Z,21.37
2018-03-24T21:19:00.523Z,21.20
2018-03-24T21:21:26.757Z,20.20
2018-03-24T21:23:53.142Z,20.87
2018-03-24T21:26:20.824Z,21.30
2018-03-24T21:28:47.855Z,20.40
2018-03-24T21:31:15.302Z,18.53
2018-03-24T21:33:42.057Z,19.40
2018-03-24T21:36:11.013Z,18.10
2018-03-24T21:38:37.380Z,20.10
2018-03-24T21:41:03.934Z,21.13
2018-03-24T21:43:30.833Z,19.80
2018-03-24T21:45:57.068Z,20.10
2018-03-24T21:48:23.480Z,22.23
2018-03-24T21:50:49.726Z,26.30
2018-03-24T21:53:15.861Z,33.87
2018-03-24T21:55:42.175Z,32.60
2018-03-24T21:58:08.382Z,28.30
2018-03-24T22:00:34.556Z,26.13
2018-03-24T22:03:00.679Z,27.07
2018-03-24T22:05:26.920Z,41.90
2018-03-24T22:07:53.803Z,30.37
2018-03-24T22:10:21.138Z,33.00
2018-03-24T22:12:47.292Z,28.97
2018-03-24T22:15:13.413Z,39.20
2018-03-24T22:17:39.591Z,33.63
2018-03-24T22:20:06.619Z,31.43
2018-03-24T22:22:32.752Z,29.20
2018-03-24T22:24:59.250Z,30.50
2018-03-24T22:27:25.742Z,29.47
2018-03-24T22:29:51.807Z,36.53
2018-03-24T22:32:18.591Z,38.20
2018-03-24T22:34:45.675Z,33.40
2018-03-24T22:37:11.726Z,30.80
2018-03-24T22:39:38.881Z,28.60
2018-03-24T22:42:05.919Z,25.13
2018-03-24T22:44:32.899Z,26.80
2018-03-24T22:46:59.818Z,25.63
2018-03-24T22:49:26.283Z,25.17
2018-03-24T22:51:53.204Z,25.90
2018-03-24T22:54:19.257Z,24.43
2018-03-24T22:56:46.280Z,25.10
2018-03-24T22:59:12.661Z,33.63
2018-03-24T23:01:39.536Z,33.10
2018-03-24T23:04:05.686Z,27.67
2018-03-24T23:06:31.720Z,30.30
2018-03-24T23:08:57.784Z,25.67
2018-03-24T23:11:24.403Z,26.90
2018-03-24T23:13:50.429Z,25.57
2018-03-24T23:16:16.732Z,24.80
2018-03-24T23:18:43.701Z,21.90
2018-03-24T23:21:09.815Z,25.00
2018-03-24T23:23:36.065Z,22.30
2018-03-24T23:26:02.373Z,23.57
2018-03-24T23:28:28.566Z,24.50
2018-03-24T23:30:54.646Z,23.30
2018-03-24T23:33:20.774Z,23.60
2018-03-24T23:35:46.902Z,22.83
2018-03-24T23:38:12.925Z,22.30
2018-03-24T23:40:39.055Z,22.33
2018-03-24T23:43:05.170Z,22.27
2018-03-24T23:45:31.959Z,21.87
2018-03-24T23:47:58.032Z,21.57
2018-03-24T23:50:24.139Z,22.47
2018-03-24T23:52:51.315Z,23.07
2018-03-24T23:55:17.440Z,22.77
2018-03-24T23:57:43.569Z,24.30
